sensor_id;sensor_type;location;lat;lon;timestamp;pressure;altitude;pressure_sealevel;temperature
11926;BMP180;6022;48.768;18.608;2023-04-01T00:01:12;96867.75;;;10.33
11926;BMP180;6022;48.768;18.608;2023-04-01T00:03:44;96872.72;;;10.34
11926;BMP180;6022;48.768;18.608;2023-04-01T00:06:17;96860.81;;;10.35
11926;BMP180;6022;48.768;18.608;2023-04-01T00:08:45;96851.63;;;10.34
11926;BMP180;6022;48.768;18.608;2023-04-01T00:11:13;96853.38;;;10.33
11926;BMP180;6022;48.768;18.608;2023-04-01T00:13:42;96857.63;;;10.33
11926;BMP180;6022;48.768;18.608;2023-04-01T00:16:10;96852.72;;;10.31
11926;BMP180;6022;48.768;18.608;2023-04-01T00:18:49;96862.97;;;10.30
11926;BMP180;6022;48.768;18.608;2023-04-01T00:21:17;96872.56;;;10.36
11926;BMP180;6022;48.768;18.608;2023-04-01T00:23:45;96867.38;;;10.37
11926;BMP180;6022;48.768;18.608;2023-04-01T00:26:12;96878.19;;;10.30
11926;BMP180;6022;48.768;18.608;2023-04-01T00:28:42;96875.22;;;10.25
11926;BMP180;6022;48.768;18.608;2023-04-01T00:31:10;96877.66;;;10.26
11926;BMP180;6022;48.768;18.608;2023-04-01T00:33:39;96879.22;;;10.27
11926;BMP180;6022;48.768;18.608;2023-04-01T00:36:08;96871.78;;;10.26
11926;BMP180;6022;48.768;18.608;2023-04-01T00:38:36;96876.31;;;10.22
11926;BMP180;6022;48.768;18.608;2023-04-01T00:41:05;96872.56;;;10.17
11926;BMP180;6022;48.768;18.608;2023-04-01T00:43:34;96872.56;;;10.17
11926;BMP180;6022;48.768;18.608;2023-04-01T00:46:01;96876.03;;;10.16
11926;BMP180;6022;48.768;18.608;2023-04-01T00:48:36;96871.91;;;10.15
11926;BMP180;6022;48.768;18.608;2023-04-01T00:51:10;96864.81;;;10.00
11926;BMP180;6022;48.768;18.608;2023-04-01T00:53:46;96862.47;;;9.87
11926;BMP180;6022;48.768;18.608;2023-04-01T00:56:19;96861.31;;;9.91
11926;BMP180;6022;48.768;18.608;2023-04-01T00:58:56;96868.53;;;9.96
11926;BMP180;6022;48.768;18.608;2023-04-01T01:01:25;96865.72;;;9.99
11926;BMP180;6022;48.768;18.608;2023-04-01T01:03:53;96862.09;;;9.92
11926;BMP180;6022;48.768;18.608;2023-04-01T01:09:28;96871.31;;;9.93
11926;BMP180;6022;48.768;18.608;2023-04-01T01:30:58;96869.28;;;9.48
11926;BMP180;6022;48.768;18.608;2023-04-01T01:33:34;96869.72;;;9.53
11926;BMP180;6022;48.768;18.608;2023-04-01T01:36:09;96866.63;;;9.49
11926;BMP180;6022;48.768;18.608;2023-04-01T01:38:38;96872.63;;;9.48
11926;BMP180;6022;48.768;18.608;2023-04-01T01:41:08;96871.16;;;9.46
11926;BMP180;6022;48.768;18.608;2023-04-01T01:43:42;96867.28;;;9.42
11926;BMP180;6022;48.768;18.608;2023-04-01T01:46:15;96856.31;;;9.32
11926;BMP180;6022;48.768;18.608;2023-04-01T01:48:45;96865.38;;;9.35
11926;BMP180;6022;48.768;18.608;2023-04-01T01:51:15;96866.28;;;9.34
11926;BMP180;6022;48.768;18.608;2023-04-01T01:53:43;96867.78;;;9.36
11926;BMP180;6022;48.768;18.608;2023-04-01T01:56:11;96868.19;;;9.41
11926;BMP180;6022;48.768;18.608;2023-04-01T01:58:55;96871.28;;;9.44
11926;BMP180;6022;48.768;18.608;2023-04-01T02:01:30;96874.59;;;9.45
11926;BMP180;6022;48.768;18.608;2023-04-01T02:03:59;96875.69;;;9.52
11926;BMP180;6022;48.768;18.608;2023-04-01T02:06:30;96877.13;;;9.45
11926;BMP180;6022;48.768;18.608;2023-04-01T02:09:03;96873.69;;;9.46
11926;BMP180;6022;48.768;18.608;2023-04-01T02:11:35;96875.28;;;9.47
11926;BMP180;6022;48.768;18.608;2023-04-01T02:17:15;96879.66;;;9.45
11926;BMP180;6022;48.768;18.608;2023-04-01T02:19:50;96873.69;;;9.46
11926;BMP180;6022;48.768;18.608;2023-04-01T02:22:26;96872.34;;;9.42
11926;BMP180;6022;48.768;18.608;2023-04-01T02:25:00;96865.94;;;9.38
11926;BMP180;6022;48.768;18.608;2023-04-01T02:27:28;96869.88;;;9.31
11926;BMP180;6022;48.768;18.608;2023-04-01T02:29:57;96868.31;;;9.30
11926;BMP180;6022;48.768;18.608;2023-04-01T02:32:27;96860.84;;;9.29
11926;BMP180;6022;48.768;18.608;2023-04-01T02:34:57;96866.91;;;9.26
11926;BMP180;6022;48.768;18.608;2023-04-01T02:37:26;96863.06;;;9.22
11926;BMP180;6022;48.768;18.608;2023-04-01T02:39:53;96852.25;;;9.20
11926;BMP180;6022;48.768;18.608;2023-04-01T02:42:20;96851.47;;;9.20
11926;BMP180;6022;48.768;18.608;2023-04-01T02:44:47;96857.28;;;9.11
11926;BMP180;6022;48.768;18.608;2023-04-01T02:47:15;96840.75;;;9.07
11926;BMP180;6022;48.768;18.608;2023-04-01T02:49:42;96839.00;;;9.07
11926;BMP180;6022;48.768;18.608;2023-04-01T02:52:09;96844.56;;;9.02
11926;BMP180;6022;48.768;18.608;2023-04-01T02:54:36;96836.06;;;9.03
11926;BMP180;6022;48.768;18.608;2023-04-01T02:57:03;96835.13;;;9.03
11926;BMP180;6022;48.768;18.608;2023-04-01T02:59:31;96837.53;;;9.05
11926;BMP180;6022;48.768;18.608;2023-04-01T03:01:58;96834.91;;;9.06
11926;BMP180;6022;48.768;18.608;2023-04-01T03:04:26;96839.22;;;8.95
11926;BMP180;6022;48.768;18.608;2023-04-01T03:06:53;96833.75;;;8.90
11926;BMP180;6022;48.768;18.608;2023-04-01T03:09:21;96839.97;;;8.86
11926;BMP180;6022;48.768;18.608;2023-04-01T03:11:49;96839.69;;;8.80
11926;BMP180;6022;48.768;18.608;2023-04-01T03:14:16;96843.78;;;8.81
11926;BMP180;6022;48.768;18.608;2023-04-01T03:16:46;96842.38;;;8.88
11926;BMP180;6022;48.768;18.608;2023-04-01T03:19:15;96839.97;;;8.86
11926;BMP180;6022;48.768;18.608;2023-04-01T03:21:42;96836.16;;;8.92
11926;BMP180;6022;48.768;18.608;2023-04-01T03:24:10;96839.59;;;8.91
11926;BMP180;6022;48.768;18.608;2023-04-01T03:26:37;96846.59;;;8.78
11926;BMP180;6022;48.768;18.608;2023-04-01T03:29:04;96846.72;;;8.76
11926;BMP180;6022;48.768;18.608;2023-04-01T03:31:31;96842.44;;;8.77
11926;BMP180;6022;48.768;18.608;2023-04-01T03:33:59;96843.69;;;8.62
11926;BMP180;6022;48.768;18.608;2023-04-01T03:36:28;96836.28;;;8.50
11926;BMP180;6022;48.768;18.608;2023-04-01T03:38:55;96836.47;;;8.58
11926;BMP180;6022;48.768;18.608;2023-04-01T03:41:22;96837.28;;;8.58
11926;BMP180;6022;48.768;18.608;2023-04-01T03:43:49;96837.50;;;8.55
11926;BMP180;6022;48.768;18.608;2023-04-01T03:46:18;96829.13;;;8.55
11926;BMP180;6022;48.768;18.608;2023-04-01T03:48:46;96838.88;;;8.59
11926;BMP180;6022;48.768;18.608;2023-04-01T03:51:13;96843.13;;;8.59
11926;BMP180;6022;48.768;18.608;2023-04-01T03:53:41;96850.47;;;8.62
11926;BMP180;6022;48.768;18.608;2023-04-01T03:56:08;96851.38;;;8.61
11926;BMP180;6022;48.768;18.608;2023-04-01T03:58:37;96856.19;;;8.64
11926;BMP180;6022;48.768;18.608;2023-04-01T04:01:20;96848.72;;;8.62
11926;BMP180;6022;48.768;18.608;2023-04-01T04:03:49;96851.38;;;8.61
11926;BMP180;6022;48.768;18.608;2023-04-01T04:06:18;96859.63;;;8.63
11926;BMP180;6022;48.768;18.608;2023-04-01T04:08:46;96857.00;;;8.64
11926;BMP180;6022;48.768;18.608;2023-04-01T04:11:13;96861.63;;;8.59
11926;BMP180;6022;48.768;18.608;2023-04-01T04:13:42;96865.97;;;8.57
11926;BMP180;6022;48.768;18.608;2023-04-01T04:16:10;96865.28;;;8.55
11926;BMP180;6022;48.768;18.608;2023-04-01T04:18:37;96868.19;;;8.51
11926;BMP180;6022;48.768;18.608;2023-04-01T04:21:05;96874.31;;;8.48
11926;BMP180;6022;48.768;18.608;2023-04-01T04:23:33;96882.59;;;8.39
11926;BMP180;6022;48.768;18.608;2023-04-01T04:26:08;96880.97;;;8.38
11926;BMP180;6022;48.768;18.608;2023-04-01T04:28:35;96883.50;;;8.38
11926;BMP180;6022;48.768;18.608;2023-04-01T04:31:03;96883.66;;;8.37
11926;BMP180;6022;48.768;18.608;2023-04-01T04:33:32;96886.59;;;8.42
11926;BMP180;6022;48.768;18.608;2023-04-01T04:36:01;96883.41;;;8.40
11926;BMP180;6022;48.768;18.608;2023-04-01T04:38:29;96884.69;;;8.34
11926;BMP180;6022;48.768;18.608;2023-04-01T04:40:58;96884.44;;;8.37
11926;BMP180;6022;48.768;18.608;2023-04-01T04:43:25;96892.47;;;8.42
11926;BMP180;6022;48.768;18.608;2023-04-01T04:45:52;96888.81;;;8.35
11926;BMP180;6022;48.768;18.608;2023-04-01T04:48:19;96898.25;;;8.33
11926;BMP180;6022;48.768;18.608;2023-04-01T04:50:51;96895.25;;;8.39
11926;BMP180;6022;48.768;18.608;2023-04-01T04:53:19;96889.28;;;8.40
11926;BMP180;6022;48.768;18.608;2023-04-01T04:55:50;96894.31;;;8.40
11926;BMP180;6022;48.768;18.608;2023-04-01T04:58:18;96896.63;;;8.32
11926;BMP180;6022;48.768;18.608;2023-04-01T05:00:46;96905.72;;;8.35
11926;BMP180;6022;48.768;18.608;2023-04-01T05:03:13;96911.78;;;8.32
11926;BMP180;6022;48.768;18.608;2023-04-01T05:05:53;96906.72;;;8.32
11926;BMP180;6022;48.768;18.608;2023-04-01T05:08:20;96907.19;;;8.37
11926;BMP180;6022;48.768;18.608;2023-04-01T05:10:47;96895.34;;;8.38
11926;BMP180;6022;48.768;18.608;2023-04-01T05:13:14;96896.47;;;8.45
11926;BMP180;6022;48.768;18.608;2023-04-01T05:15:44;96901.84;;;8.51
11926;BMP180;6022;48.768;18.608;2023-04-01T05:18:11;96905.03;;;8.53
11926;BMP180;6022;48.768;18.608;2023-04-01T05:20:38;96897.91;;;8.58
11926;BMP180;6022;48.768;18.608;2023-04-01T05:23:06;96900.88;;;8.63
11926;BMP180;6022;48.768;18.608;2023-04-01T05:25:33;96899.34;;;8.71
11926;BMP180;6022;48.768;18.608;2023-04-01T05:28:00;96900.03;;;8.73
11926;BMP180;6022;48.768;18.608;2023-04-01T05:30:30;96898.06;;;8.77
11926;BMP180;6022;48.768;18.608;2023-04-01T05:32:58;96897.16;;;8.78
11926;BMP180;6022;48.768;18.608;2023-04-01T05:35:26;96900.34;;;8.80
11926;BMP180;6022;48.768;18.608;2023-04-01T05:37:54;96901.16;;;8.80
11926;BMP180;6022;48.768;18.608;2023-04-01T05:40:21;96897.56;;;8.83
11926;BMP180;6022;48.768;18.608;2023-04-01T05:42:51;96897.22;;;8.87
11926;BMP180;6022;48.768;18.608;2023-04-01T05:45:19;96894.53;;;8.89
11926;BMP180;6022;48.768;18.608;2023-04-01T05:47:46;96896.59;;;8.95
11926;BMP180;6022;48.768;18.608;2023-04-01T05:50:14;96901.16;;;9.01
11926;BMP180;6022;48.768;18.608;2023-04-01T05:52:42;96902.22;;;9.07
11926;BMP180;6022;48.768;18.608;2023-04-01T05:55:09;96900.25;;;9.11
11926;BMP180;6022;48.768;18.608;2023-04-01T05:57:36;96901.31;;;9.08
11926;BMP180;6022;48.768;18.608;2023-04-01T06:00:04;96907.06;;;9.10
11926;BMP180;6022;48.768;18.608;2023-04-01T06:02:32;96899.91;;;9.15
11926;BMP180;6022;48.768;18.608;2023-04-01T06:05:23;96888.78;;;9.27
11926;BMP180;6022;48.768;18.608;2023-04-01T06:08:10;96893.38;;;9.42
11926;BMP180;6022;48.768;18.608;2023-04-01T06:10:51;96891.28;;;9.47
11926;BMP180;6022;48.768;18.608;2023-04-01T06:19:51;96912.00;;;10.10
11926;BMP180;6022;48.768;18.608;2023-04-01T06:25:47;96917.00;;;10.58
11926;BMP180;6022;48.768;18.608;2023-04-01T06:48:28;96937.66;;;9.87
11926;BMP180;6022;48.768;18.608;2023-04-01T06:54:15;96932.78;;;9.95
11926;BMP180;6022;48.768;18.608;2023-04-01T06:56:48;96937.75;;;10.06
11926;BMP180;6022;48.768;18.608;2023-04-01T06:59:25;96935.78;;;10.28
11926;BMP180;6022;48.768;18.608;2023-04-01T07:01:59;96933.56;;;10.81
11926;BMP180;6022;48.768;18.608;2023-04-01T07:04:32;96931.41;;;10.95
11926;BMP180;6022;48.768;18.608;2023-04-01T07:09:59;96926.06;;;10.80
11926;BMP180;6022;48.768;18.608;2023-04-01T07:12:46;96928.59;;;10.89
11926;BMP180;6022;48.768;18.608;2023-04-01T07:15:36;96930.22;;;10.90
11926;BMP180;6022;48.768;18.608;2023-04-01T07:18:21;96933.56;;;10.81
11926;BMP180;6022;48.768;18.608;2023-04-01T07:20:53;96936.63;;;10.75
11926;BMP180;6022;48.768;18.608;2023-04-01T07:23:32;96930.22;;;10.71
11926;BMP180;6022;48.768;18.608;2023-04-01T07:26:24;96925.81;;;10.73
11926;BMP180;6022;48.768;18.608;2023-04-01T07:28:53;96931.03;;;10.72
11926;BMP180;6022;48.768;18.608;2023-04-01T07:34:28;96935.97;;;10.73
11926;BMP180;6022;48.768;18.608;2023-04-01T07:37:28;96927.81;;;10.60
11926;BMP180;6022;48.768;18.608;2023-04-01T07:43:22;96920.88;;;10.62
11926;BMP180;6022;48.768;18.608;2023-04-01T07:52:25;96934.50;;;10.43
11926;BMP180;6022;48.768;18.608;2023-04-01T07:55:18;96929.78;;;10.29
11926;BMP180;6022;48.768;18.608;2023-04-01T07:58:22;96938.47;;;10.45
11926;BMP180;6022;48.768;18.608;2023-04-01T08:04:09;96939.03;;;10.58
11926;BMP180;6022;48.768;18.608;2023-04-01T08:07:18;96936.38;;;10.59
11926;BMP180;6022;48.768;18.608;2023-04-01T08:10:19;96940.63;;;10.68
11926;BMP180;6022;48.768;18.608;2023-04-01T08:16:25;96946.34;;;10.70
11926;BMP180;6022;48.768;18.608;2023-04-01T08:22:02;96932.03;;;11.44
11926;BMP180;6022;48.768;18.608;2023-04-01T08:24:46;96930.56;;;11.78
11926;BMP180;6022;48.768;18.608;2023-04-01T08:27:40;96936.22;;;11.72
11926;BMP180;6022;48.768;18.608;2023-04-01T08:33:19;96937.97;;;11.62
11926;BMP180;6022;48.768;18.608;2023-04-01T08:50:40;96963.84;;;11.01
11926;BMP180;6022;48.768;18.608;2023-04-01T09:18:01;96960.09;;;11.15
11926;BMP180;6022;48.768;18.608;2023-04-01T09:27:29;96964.09;;;11.17
11926;BMP180;6022;48.768;18.608;2023-04-01T09:36:33;96961.97;;;11.13
11926;BMP180;6022;48.768;18.608;2023-04-01T09:39:38;96957.56;;;11.24
11926;BMP180;6022;48.768;18.608;2023-04-01T09:44:59;96961.97;;;11.13
11926;BMP180;6022;48.768;18.608;2023-04-01T11:02:09;96972.50;;;11.55
11926;BMP180;6022;48.768;18.608;2023-04-01T11:11:11;96966.69;;;11.72
11926;BMP180;6022;48.768;18.608;2023-04-01T11:17:35;96962.34;;;12.18
11926;BMP180;6022;48.768;18.608;2023-04-01T11:20:51;96961.06;;;12.31
11926;BMP180;6022;48.768;18.608;2023-04-01T11:23:54;96955.91;;;12.41
11926;BMP180;6022;48.768;18.608;2023-04-01T11:26:56;96952.88;;;12.37
11926;BMP180;6022;48.768;18.608;2023-04-01T11:41:52;96966.63;;;12.17
11926;BMP180;6022;48.768;18.608;2023-04-01T11:44:30;96956.91;;;12.13
11926;BMP180;6022;48.768;18.608;2023-04-01T11:53:22;96968.44;;;12.07
11926;BMP180;6022;48.768;18.608;2023-04-01T12:07:19;96963.22;;;12.53
11926;BMP180;6022;48.768;18.608;2023-04-01T12:10:20;96965.00;;;12.43
11926;BMP180;6022;48.768;18.608;2023-04-01T12:19:11;96961.63;;;12.25
11926;BMP180;6022;48.768;18.608;2023-04-01T12:31:26;96972.88;;;12.23
11926;BMP180;6022;48.768;18.608;2023-04-01T12:37:42;96972.84;;;12.32
11926;BMP180;6022;48.768;18.608;2023-04-01T12:40:27;96971.34;;;12.39
11926;BMP180;6022;48.768;18.608;2023-04-01T12:52:44;96976.72;;;12.71
11926;BMP180;6022;48.768;18.608;2023-04-01T12:55:36;96980.50;;;12.67
11926;BMP180;6022;48.768;18.608;2023-04-01T12:58:37;96975.22;;;12.78
11926;BMP180;6022;48.768;18.608;2023-04-01T13:09:50;96965.22;;;13.36
11926;BMP180;6022;48.768;18.608;2023-04-01T13:13:00;96961.69;;;13.54
11926;BMP180;6022;48.768;18.608;2023-04-01T13:27:37;96961.22;;;13.58
11926;BMP180;6022;48.768;18.608;2023-04-01T13:30:53;96950.09;;;13.59
11926;BMP180;6022;48.768;18.608;2023-04-01T13:42:25;96958.53;;;13.85
11926;BMP180;6022;48.768;18.608;2023-04-01T13:45:12;96953.16;;;13.96
11926;BMP180;6022;48.768;18.608;2023-04-01T13:59:56;96945.69;;;13.69
11926;BMP180;6022;48.768;18.608;2023-04-01T14:05:08;96960.78;;;13.38
11926;BMP180;6022;48.768;18.608;2023-04-01T14:11:25;96969.06;;;12.80
11926;BMP180;6022;48.768;18.608;2023-04-01T14:29:35;96979.22;;;11.83
11926;BMP180;6022;48.768;18.608;2023-04-01T14:33:05;96978.94;;;11.86
11926;BMP180;6022;48.768;18.608;2023-04-01T14:35:49;96978.94;;;11.86
11926;BMP180;6022;48.768;18.608;2023-04-01T14:38:47;96974.59;;;11.96
11926;BMP180;6022;48.768;18.608;2023-04-01T14:41:28;96975.88;;;12.09
11926;BMP180;6022;48.768;18.608;2023-04-01T14:47:11;96975.00;;;12.27
11926;BMP180;6022;48.768;18.608;2023-04-01T14:49:53;96983.19;;;12.21
11926;BMP180;6022;48.768;18.608;2023-04-01T14:52:38;96983.31;;;12.20
11926;BMP180;6022;48.768;18.608;2023-04-01T14:55:31;96986.38;;;12.23
11926;BMP180;6022;48.768;18.608;2023-04-01T14:58:09;96984.59;;;12.33
11926;BMP180;6022;48.768;18.608;2023-04-01T15:01:07;96984.47;;;12.35
11926;BMP180;6022;48.768;18.608;2023-04-01T15:24:24;96979.59;;;12.14
11926;BMP180;6022;48.768;18.608;2023-04-01T15:46:30;96983.19;;;11.95
11926;BMP180;6022;48.768;18.608;2023-04-01T16:01:18;96993.75;;;12.26
11926;BMP180;6022;48.768;18.608;2023-04-01T16:07:07;96996.66;;;12.31
11926;BMP180;6022;48.768;18.608;2023-04-01T16:10:09;97003.63;;;12.29
11926;BMP180;6022;48.768;18.608;2023-04-01T16:13:19;97010.00;;;12.33
11926;BMP180;6022;48.768;18.608;2023-04-01T16:19:54;97020.13;;;12.43
11926;BMP180;6022;48.768;18.608;2023-04-01T16:22:34;97018.13;;;12.46
11926;BMP180;6022;48.768;18.608;2023-04-01T16:25:36;97022.59;;;12.35
11926;BMP180;6022;48.768;18.608;2023-04-01T16:28:35;97025.03;;;12.27
11926;BMP180;6022;48.768;18.608;2023-04-01T16:31:32;97030.13;;;12.27
11926;BMP180;6022;48.768;18.608;2023-04-01T16:34:30;97029.03;;;12.29
11926;BMP180;6022;48.768;18.608;2023-04-01T16:37:20;97041.75;;;12.29
11926;BMP180;6022;48.768;18.608;2023-04-01T16:42:54;97053.47;;;12.13
11926;BMP180;6022;48.768;18.608;2023-04-01T16:48:59;97042.47;;;12.12
11926;BMP180;6022;48.768;18.608;2023-04-01T16:54:44;97064.03;;;12.08
11926;BMP180;6022;48.768;18.608;2023-04-01T16:57:46;97060.19;;;12.05
11926;BMP180;6022;48.768;18.608;2023-04-01T17:00:27;97062.31;;;12.00
11926;BMP180;6022;48.768;18.608;2023-04-01T17:03:12;97063.41;;;11.97
11926;BMP180;6022;48.768;18.608;2023-04-01T17:15:46;97066.28;;;11.85
11926;BMP180;6022;48.768;18.608;2023-04-01T17:24:35;97074.41;;;11.79
11926;BMP180;6022;48.768;18.608;2023-04-01T17:30:34;97076.44;;;11.75
11926;BMP180;6022;48.768;18.608;2023-04-01T17:33:25;97086.59;;;11.75
11926;BMP180;6022;48.768;18.608;2023-04-01T17:36:07;97089.28;;;11.74
11926;BMP180;6022;48.768;18.608;2023-04-01T17:42:04;97100.13;;;11.57
11926;BMP180;6022;48.768;18.608;2023-04-01T17:47:34;97112.94;;;11.46
11926;BMP180;6022;48.768;18.608;2023-04-01T17:50:34;97110.53;;;11.45
11926;BMP180;6022;48.768;18.608;2023-04-01T17:59:00;97122.00;;;11.30
11926;BMP180;6022;48.768;18.608;2023-04-01T18:16:51;97138.50;;;11.06
11926;BMP180;6022;48.768;18.608;2023-04-01T18:20:19;97142.53;;;10.99
11926;BMP180;6022;48.768;18.608;2023-04-01T18:25:50;97141.94;;;10.86
11926;BMP180;6022;48.768;18.608;2023-04-01T18:31:24;97154.50;;;10.88
11926;BMP180;6022;48.768;18.608;2023-04-01T18:34:12;97157.41;;;10.83
11926;BMP180;6022;48.768;18.608;2023-04-01T18:36:52;97162.06;;;10.69
11926;BMP180;6022;48.768;18.608;2023-04-01T18:39:33;97164.88;;;10.75
11926;BMP180;6022;48.768;18.608;2023-04-01T18:42:38;97169.94;;;10.75
11926;BMP180;6022;48.768;18.608;2023-04-01T18:45:23;97162.44;;;10.74
11926;BMP180;6022;48.768;18.608;2023-04-01T18:50:59;97171.97;;;10.52
11926;BMP180;6022;48.768;18.608;2023-04-01T18:53:41;97175.19;;;10.54
11926;BMP180;6022;48.768;18.608;2023-04-01T18:56:24;97169.88;;;10.56
11926;BMP180;6022;48.768;18.608;2023-04-01T18:59:21;97184.41;;;10.55
11926;BMP180;6022;48.768;18.608;2023-04-01T19:02:02;97179.16;;;10.47
11926;BMP180;6022;48.768;18.608;2023-04-01T19:04:44;97181.69;;;10.47
11926;BMP180;6022;48.768;18.608;2023-04-01T19:13:35;97204.03;;;10.12
11926;BMP180;6022;48.768;18.608;2023-04-01T19:25:51;97205.59;;;10.24
11926;BMP180;6022;48.768;18.608;2023-04-01T19:28:55;97206.00;;;10.29
11926;BMP180;6022;48.768;18.608;2023-04-01T19:34:59;97204.41;;;10.28
11926;BMP180;6022;48.768;18.608;2023-04-01T19:37:46;97211.28;;;10.17
11926;BMP180;6022;48.768;18.608;2023-04-01T19:46:36;97224.75;;;10.17
11926;BMP180;6022;48.768;18.608;2023-04-01T19:52:52;97229.69;;;10.18
11926;BMP180;6022;48.768;18.608;2023-04-01T20:00:59;97233.94;;;10.18
11926;BMP180;6022;48.768;18.608;2023-04-01T20:03:55;97237.28;;;10.18
11926;BMP180;6022;48.768;18.608;2023-04-01T20:06:57;97239.00;;;10.18
11926;BMP180;6022;48.768;18.608;2023-04-01T20:12:41;97245.69;;;10.19
11926;BMP180;6022;48.768;18.608;2023-04-01T20:15:38;97244.31;;;10.15
11926;BMP180;6022;48.768;18.608;2023-04-01T20:18:18;97240.06;;;10.16
11926;BMP180;6022;48.768;18.608;2023-04-01T20:21:02;97236.97;;;10.12
11926;BMP180;6022;48.768;18.608;2023-04-01T20:23:57;97244.81;;;10.09
11926;BMP180;6022;48.768;18.608;2023-04-01T20:26:33;97236.53;;;10.07
11926;BMP180;6022;48.768;18.608;2023-04-01T20:35:12;97244.19;;;9.96
11926;BMP180;6022;48.768;18.608;2023-04-01T20:38:21;97242.81;;;9.92
11926;BMP180;6022;48.768;18.608;2023-04-01T20:40:57;97239.56;;;9.90
11926;BMP180;6022;48.768;18.608;2023-04-01T20:43:47;97240.78;;;9.76
11926;BMP180;6022;48.768;18.608;2023-04-01T20:52:47;97238.59;;;9.71
11926;BMP180;6022;48.768;18.608;2023-04-01T20:58:38;97241.00;;;9.73
11926;BMP180;6022;48.768;18.608;2023-04-01T21:06:03;97251.41;;;9.70
11926;BMP180;6022;48.768;18.608;2023-04-01T21:11:35;97256.47;;;9.59
11926;BMP180;6022;48.768;18.608;2023-04-01T21:17:22;97256.97;;;9.53
11926;BMP180;6022;48.768;18.608;2023-04-01T21:20:18;97251.91;;;9.53
11926;BMP180;6022;48.768;18.608;2023-04-01T21:29:24;97259.94;;;9.47
11926;BMP180;6022;48.768;18.608;2023-04-01T21:32:30;97263.63;;;9.43
11926;BMP180;6022;48.768;18.608;2023-04-01T21:35:38;97268.47;;;9.35
11926;BMP180;6022;48.768;18.608;2023-04-01T21:38:43;97271.38;;;9.31
11926;BMP180;6022;48.768;18.608;2023-04-01T21:41:43;97277.34;;;9.30
11926;BMP180;6022;48.768;18.608;2023-04-01T21:53:50;97274.47;;;9.23
11926;BMP180;6022;48.768;18.608;2023-04-01T22:05:41;97271.47;;;9.07
11926;BMP180;6022;48.768;18.608;2023-04-01T22:08:41;97272.53;;;9.05
11926;BMP180;6022;48.768;18.608;2023-04-01T22:17:54;97272.78;;;8.91
11926;BMP180;6022;48.768;18.608;2023-04-01T22:21:06;97276.09;;;8.92
11926;BMP180;6022;48.768;18.608;2023-04-01T22:23:44;97282.75;;;8.93
11926;BMP180;6022;48.768;18.608;2023-04-01T22:31:57;97284.16;;;8.97
11926;BMP180;6022;48.768;18.608;2023-04-01T22:34:56;97283.22;;;8.98
11926;BMP180;6022;48.768;18.608;2023-04-01T22:37:40;97288.28;;;8.98
11926;BMP180;6022;48.768;18.608;2023-04-01T22:43:40;97285.84;;;8.96
11926;BMP180;6022;48.768;18.608;2023-04-01T22:52:29;97288.25;;;8.87
11926;BMP180;6022;48.768;18.608;2023-04-01T22:55:06;97287.56;;;8.85
11926;BMP180;6022;48.768;18.608;2023-04-01T22:58:03;97283.44;;;8.84
11926;BMP180;6022;48.768;18.608;2023-04-01T23:00:39;97294.56;;;8.81
11926;BMP180;6022;48.768;18.608;2023-04-01T23:03:32;97297.25;;;8.80
11926;BMP180;6022;48.768;18.608;2023-04-01T23:06:03;97296.88;;;8.73
11926;BMP180;6022;48.768;18.608;2023-04-01T23:09:01;97298.59;;;8.73
11926;BMP180;6022;48.768;18.608;2023-04-01T23:11:46;97291.81;;;8.73
11926;BMP180;6022;48.768;18.608;2023-04-01T23:23:41;97303.59;;;8.51
11926;BMP180;6022;48.768;18.608;2023-04-01T23:28:40;97306.34;;;8.37
11926;BMP180;6022;48.768;18.608;2023-04-01T23:31:36;97300.69;;;8.34
11926;BMP180;6022;48.768;18.608;2023-04-01T23:36:45;97306.44;;;8.36
11926;BMP180;6022;48.768;18.608;2023-04-01T23:39:37;97293.69;;;8.37
11926;BMP180;6022;48.768;18.608;2023-04-01T23:42:25;97301.97;;;8.39
11926;BMP180;6022;48.768;18.608;2023-04-01T23:45:15;97310.72;;;8.46
11926;BMP180;6022;48.768;18.608;2023-04-01T23:47:50;97310.03;;;8.44
11926;BMP180;6022;48.768;18.608;2023-04-01T23:50:25;97308.31;;;8.45
11926;BMP180;6022;48.768;18.608;2023-04-01T23:53:13;97315.09;;;8.44
11926;BMP180;6022;48.768;18.608;2023-04-01T23:55:43;97317.63;;;8.44
